Friday, April 20, 2018, 6:23 AM EDT
Back to Local

KGED, Georgetown Sussex Co Airport

Location: Georgetown, DE, United States Lat: 38.683
Local Time: 6:23 AM EDT (10:23 GMT) Lon: -75.367
Time Zone: US/Eastern Elev: 52 ft

Show me the last for .
Show Decoded

2018-04-20 05:54 METAR KGED 200954Z AUTO 30007KT 10SM OVC055 04/M04 A3020 RMK AO2 SLP228
                 T00391044 =
2018-04-20 04:54 METAR KGED 200854Z AUTO 31005KT 10SM CLR 03/M04 A3018 RMK AO2 SLP220 T00331039
                 53016 =
2018-04-20 03:54 METAR KGED 200754Z AUTO 00000KT 10SM FEW050 03/M03 A3016 RMK AO2 SLP213
                 T00281028 =
2018-04-20 02:54 METAR KGED 200654Z AUTO 00000KT 10SM CLR 03/M03 A3015 RMK AO2 SLP209 T00281028 =
2018-04-20 01:54 METAR KGED 200554Z AUTO 00000KT 10SM CLR 04/M04 A3013 RMK AO2 SLP204 T00441039
                 10089 20044 50004 =
2018-04-20 00:54 METAR KGED 200454Z AUTO VRB03KT 10SM CLR 05/M03 A3014 RMK AO2 SLP205 T00501033
                 401440050 =
2018-04-19 23:54 METAR KGED 200354Z AUTO 32004KT 10SM CLR 06/M04 A3013 RMK AO2 SLP202 T00561039 =
2018-04-19 22:54 METAR KGED 200254Z AUTO 32009G16KT 10SM CLR 06/M04 A3012 RMK AO2 SLP200
                 T00611044 51039 =
2018-04-19 21:54 METAR KGED 200154Z AUTO 34012G19KT 10SM SCT055 07/M04 A3011 RMK AO2 PK WND
                 34027/0059 SLP198 T00671039 =
2018-04-19 20:54 METAR KGED 200054Z AUTO 32008G23KT 10SM SCT055 08/M03 A3007 RMK AO2 PRESRR
                 SLP181 T00781033 =
2018-04-19 19:54 METAR KGED 192354Z AUTO 31011G21KT 10SM OVC055 09/M02 A3001 RMK AO2 PK WND
                 32029/2344 SLP161 60000 T00891022 10122 20089 53043 =
2018-04-19 18:54 METAR KGED 192254Z AUTO 30013G29KT 10SM OVC060 10/M02 A2996 RMK AO2 PK WND
                 31029/2252 SLP144 T01001017 =
2018-04-19 17:54 METAR KGED 192154Z AUTO 32010G19KT 10SM BKN050 OVC060 11/01 A2992 RMK AO2 SLP130
                 T01110011 =
2018-04-19 16:54 METAR KGED 192054Z AUTO 34007G16KT 10SM FEW034 BKN043 OVC060 11/04 A2988 RMK AO2
                 SLP118 60000 T01110044 51028 =
2018-04-19 15:54 METAR KGED 191954Z AUTO 29010G18KT 10SM OVC075 11/04 A2985 RMK AO2 SLP107
                 T01110044 =
2018-04-19 14:54 METAR KGED 191854Z AUTO 32010G20KT 10SM OVC070 11/05 A2983 RMK AO2 RAE16 SLP102
                 P0000 T01110050 =
2018-04-19 13:54 METAR KGED 191754Z AUTO 32013G23KT 3SM RA SCT025 BKN035 OVC043 12/09 A2980 RMK
                 AO2 RAB39 PRESRR SLP090 P0003 60007 T01220089 10144 20111 53018 =
2018-04-19 12:54 METAR KGED 191654Z AUTO VRB04KT 10SM FEW018 BKN075 BKN090 14/09 A2973 RMK AO2
                 SLP069 T01390089 =
2018-04-19 12:43 METAR KGED 191643Z AUTO 29006KT 10SM FEW016 BKN070 OVC095 13/09 A2974 RMK AO2
                 T01330089 =
2018-04-19 12:32 METAR KGED 191632Z AUTO 28007KT 230V340 10SM BKN016 BKN065 BKN095 13/09 A2974
                 RMK AO2 T01330089 =
2018-04-19 12:24 METAR KGED 191624Z AUTO 25007KT 10SM SCT016 BKN080 BKN095 13/09 A2974 RMK AO2
                 T01330094 =
2018-04-19 12:15 METAR KGED 191615Z AUTO 22008KT 10SM BKN014 OVC090 13/09 A2974 RMK AO2 T01280094
                 =
2018-04-19 11:54 METAR KGED 191554Z AUTO 21009KT 10SM SCT014 BKN090 BKN120 13/09 A2974 RMK AO2
                 RAE27 SLP070 P0001 T01280094 =
2018-04-19 10:54 METAR KGED 191454Z AUTO 25003KT 7SM -RA FEW065 OVC080 11/08 A2974 RMK AO2 SLP072
                 P0003 60003 T01110083 53028 =
2018-04-19 09:54 METAR KGED 191354Z AUTO 24004KT 9SM -RA OVC080 12/06 A2972 RMK AO2 RAB35 SLP064
                 P0000 T01220056 =
2018-04-19 08:54 METAR KGED 191254Z AUTO 06005KT 10SM BKN080 12/04 A2967 RMK AO2 SLP047 T01220044
                 =
2018-04-19 07:54 METAR KGED 191154Z AUTO 05012G16KT 10SM CLR 12/06 A2966 RMK AO2 SLP043 T01170056
                 10117 20078 50025 =
2018-04-19 07:32 METAR KGED 191132Z AUTO 03010KT 10SM SCT025 11/06 A2966 RMK AO2 T01060056 =
2018-04-19 06:54 METAR KGED 191054Z AUTO 36010KT 10SM SCT015 OVC022 10/06 A2966 RMK AO2 SLP044
                 T01000061 =

Support USWX by starting your Amazon purchase here.